createdAt,value
2023-04-28T00:02:22.847Z,3.20
2023-04-28T00:04:50.670Z,2.40
2023-04-28T00:07:18.395Z,4.80
2023-04-28T00:09:45.784Z,5.20
2023-04-28T00:12:13.347Z,3.40
2023-04-28T00:14:41.039Z,1.80
2023-04-28T00:17:10.253Z,6.00
2023-04-28T00:19:38.975Z,5.60
2023-04-28T00:22:06.722Z,4.80
2023-04-28T00:24:34.288Z,2.20
2023-04-28T00:27:02.745Z,4.80
2023-04-28T00:29:30.456Z,3.60
2023-04-28T00:31:58.232Z,8.80
2023-04-28T00:34:25.788Z,6.00
2023-04-28T00:36:53.698Z,8.00
2023-04-28T00:39:23.523Z,4.40
2023-04-28T00:41:51.053Z,0.60
2023-04-28T00:44:18.753Z,6.20
2023-04-28T00:46:46.739Z,2.60
2023-04-28T00:49:16.436Z,4.20
2023-04-28T00:51:44.105Z,3.00
2023-04-28T00:54:15.338Z,6.60
2023-04-28T00:56:45.046Z,2.80
2023-04-28T00:59:12.804Z,5.40
2023-04-28T01:01:40.788Z,5.20
2023-04-28T01:04:08.790Z,4.20
2023-04-28T01:06:39.183Z,3.40
2023-04-28T01:09:07.825Z,3.40
2023-04-28T01:11:37.228Z,5.20
2023-04-28T01:14:19.558Z,2.20
2023-04-28T01:16:47.733Z,3.00
2023-04-28T01:19:22.665Z,3.20
2023-04-28T01:21:51.821Z,3.00
2023-04-28T01:24:21.749Z,3.00
2023-04-28T01:26:49.178Z,7.00
2023-04-28T01:29:16.686Z,7.40
2023-04-28T01:31:44.374Z,6.00
2023-04-28T01:34:11.889Z,4.00
2023-04-28T01:36:39.624Z,6.00
2023-04-28T01:39:07.278Z,6.20
2023-04-28T01:41:34.782Z,6.20
2023-04-28T01:44:02.341Z,8.80
2023-04-28T01:46:29.910Z,1.00
2023-04-28T01:48:59.013Z,6.80
2023-04-28T01:51:27.453Z,3.60
2023-04-28T01:53:55.102Z,3.60
2023-04-28T01:56:22.601Z,4.00
2023-04-28T01:58:51.942Z,3.50
2023-04-28T02:01:19.550Z,3.75
2023-04-28T02:03:47.357Z,3.00
2023-04-28T02:06:14.988Z,1.40
2023-04-28T02:08:42.650Z,5.00
2023-04-28T02:11:13.408Z,7.60
2023-04-28T02:13:41.476Z,3.00
2023-04-28T02:16:09.138Z,4.80
2023-04-28T02:18:36.531Z,3.80
2023-04-28T02:21:16.210Z,1.00
2023-04-28T02:23:45.940Z,2.60
2023-04-28T02:26:13.341Z,6.60
2023-04-28T02:28:40.666Z,5.00
2023-04-28T02:31:09.668Z,1.00
2023-04-28T02:33:37.642Z,2.60
2023-04-28T02:36:06.301Z,5.00
2023-04-28T02:38:34.148Z,1.00
2023-04-28T02:41:02.706Z,3.20
2023-04-28T02:43:30.127Z,9.00
2023-04-28T02:45:58.079Z,6.40
2023-04-28T02:48:26.682Z,4.80
2023-04-28T02:50:54.516Z,3.40
2023-04-28T02:53:22.779Z,5.20
2023-04-28T02:55:50.923Z,4.00
2023-04-28T02:58:18.663Z,4.00
2023-04-28T03:00:47.930Z,5.20
2023-04-28T03:03:16.898Z,7.80
2023-04-28T03:05:44.474Z,4.80
2023-04-28T03:08:11.806Z,10.80
2023-04-28T03:10:39.273Z,7.40
2023-04-28T03:13:07.405Z,5.00
2023-04-28T03:15:35.435Z,4.20
2023-04-28T03:18:03.503Z,3.20
2023-04-28T03:20:31.328Z,5.40
2023-04-28T03:22:58.751Z,6.00
2023-04-28T03:25:26.164Z,3.60
2023-04-28T03:27:53.681Z,3.40
2023-04-28T03:30:21.342Z,9.20
2023-04-28T03:32:48.803Z,6.40
2023-04-28T03:35:16.647Z,0.00
2023-04-28T03:37:44.944Z,10.00
2023-04-28T03:40:12.843Z,3.60
2023-04-28T03:43:15.488Z,4.80
2023-04-28T03:46:08.468Z,4.20
2023-04-28T03:48:36.010Z,4.40
2023-04-28T03:51:03.628Z,4.80
2023-04-28T03:53:31.817Z,3.00
2023-04-28T03:55:59.706Z,4.40
2023-04-28T03:58:28.353Z,4.80
2023-04-28T04:00:55.783Z,6.40
2023-04-28T04:03:26.670Z,4.00
2023-04-28T04:05:56.883Z,3.40
2023-04-28T04:08:24.804Z,6.60
2023-04-28T04:10:52.898Z,2.00
2023-04-28T04:13:20.302Z,5.40
2023-04-28T04:15:48.041Z,3.20
2023-04-28T04:18:16.644Z,5.80
2023-04-28T04:21:02.449Z,2.80
2023-04-28T04:23:30.046Z,6.40
2023-04-28T04:25:57.444Z,5.20
2023-04-28T04:28:25.011Z,4.60
2023-04-28T04:30:52.500Z,2.60
2023-04-28T04:33:20.512Z,4.40
2023-04-28T04:35:48.121Z,6.00
2023-04-28T04:38:15.715Z,8.60
2023-04-28T04:40:43.441Z,4.00
2023-04-28T04:43:11.002Z,5.40
2023-04-28T04:45:46.176Z,4.60
2023-04-28T04:48:15.097Z,5.40
2023-04-28T04:50:42.860Z,3.60
2023-04-28T04:53:13.868Z,4.40
2023-04-28T04:55:44.290Z,6.60
2023-04-28T04:58:12.029Z,2.00
2023-04-28T05:01:04.596Z,4.00
2023-04-28T05:03:32.421Z,3.00
2023-04-28T05:06:00.436Z,3.80
2023-04-28T05:08:38.693Z,1.00
2023-04-28T05:11:06.727Z,4.00
2023-04-28T05:13:34.448Z,3.20
2023-04-28T05:16:04.122Z,2.20
2023-04-28T05:18:46.666Z,1.40
2023-04-28T05:21:16.120Z,3.20
2023-04-28T05:23:43.735Z,2.50
2023-04-28T05:26:11.393Z,1.00
2023-04-28T05:28:42.445Z,3.00
2023-04-28T05:31:09.946Z,2.00
2023-04-28T05:33:37.423Z,1.00
2023-04-28T05:36:05.705Z,3.50
2023-04-28T05:38:34.268Z,1.00
2023-04-28T05:41:04.829Z,2.75
2023-04-28T05:43:32.645Z,1.00
2023-04-28T05:46:01.370Z,1.75
2023-04-28T05:48:29.066Z,2.25
2023-04-28T05:50:56.400Z,2.00
2023-04-28T05:53:23.980Z,1.25
2023-04-28T05:55:52.755Z,3.25
2023-04-28T05:58:21.024Z,4.60
2023-04-28T06:00:48.502Z,4.60
2023-04-28T06:03:19.514Z,2.00
2023-04-28T06:05:47.670Z,2.00
2023-04-28T06:08:16.212Z,1.00
2023-04-28T06:10:43.703Z,1.40
2023-04-28T06:13:13.904Z,2.80
2023-04-28T06:15:42.743Z,1.50
2023-04-28T06:18:10.560Z,1.00
2023-04-28T06:20:38.224Z,1.25
2023-04-28T06:23:07.134Z,2.00
2023-04-28T06:25:35.069Z,1.75
2023-04-28T06:28:03.147Z,0.75
2023-04-28T06:30:30.607Z,1.00
2023-04-28T06:32:58.081Z,1.00
2023-04-28T06:35:25.631Z,2.00
2023-04-28T06:37:53.418Z,3.00
2023-04-28T06:40:21.415Z,1.00
2023-04-28T06:42:53.436Z,1.25
2023-04-28T06:45:25.156Z,1.00
2023-04-28T06:47:56.037Z,2.50
2023-04-28T06:50:24.804Z,2.00
2023-04-28T06:52:52.336Z,0.00
2023-04-28T06:55:20.098Z,2.25
2023-04-28T06:57:47.780Z,1.25
2023-04-28T07:00:15.814Z,1.00
2023-04-28T07:02:43.554Z,1.00
2023-04-28T07:05:11.546Z,2.00
2023-04-28T07:07:39.531Z,1.00
2023-04-28T07:10:07.931Z,1.00
2023-04-28T07:12:35.658Z,0.00
2023-04-28T07:15:03.159Z,2.40
2023-04-28T07:17:30.914Z,1.60
2023-04-28T07:19:58.332Z,4.00
2023-04-28T07:22:25.925Z,1.80
2023-04-28T07:24:53.726Z,1.60
2023-04-28T07:27:21.131Z,1.00
2023-04-28T07:29:48.694Z,1.20
2023-04-28T07:32:16.581Z,2.00
2023-04-28T07:34:44.285Z,2.00
2023-04-28T07:37:12.479Z,1.40
2023-04-28T07:39:40.863Z,2.00
2023-04-28T07:42:08.726Z,1.60
2023-04-28T07:44:36.560Z,3.00
2023-04-28T07:47:04.737Z,1.80
2023-04-28T07:49:32.545Z,1.60
2023-04-28T07:52:00.206Z,1.40
2023-04-28T07:54:27.928Z,2.00
2023-04-28T07:56:58.439Z,2.00
2023-04-28T07:59:26.159Z,2.50
2023-04-28T08:01:53.909Z,2.75
2023-04-28T08:04:22.021Z,3.00
2023-04-28T08:06:50.203Z,1.00
2023-04-28T08:09:18.069Z,3.50
2023-04-28T08:11:46.086Z,2.50
2023-04-28T08:14:14.365Z,1.00
2023-04-28T08:16:42.393Z,3.25
2023-04-28T08:19:10.316Z,1.25
2023-04-28T08:21:37.838Z,1.75
2023-04-28T08:24:05.979Z,1.00
2023-04-28T08:26:33.477Z,2.75
2023-04-28T08:29:01.152Z,1.00
2023-04-28T08:31:29.175Z,3.00
2023-04-28T08:33:57.109Z,1.50
2023-04-28T08:36:26.557Z,2.00
2023-04-28T08:38:54.328Z,1.00
2023-04-28T08:41:22.900Z,1.25
2023-04-28T08:43:50.692Z,1.25
2023-04-28T08:46:21.742Z,0.75
2023-04-28T08:48:50.430Z,1.00
2023-04-28T08:51:42.204Z,0.00
2023-04-28T08:54:28.965Z,0.00
2023-04-28T08:56:57.931Z,0.50
2023-04-28T08:59:26.086Z,0.00
2023-04-28T09:01:53.885Z,1.00
2023-04-28T09:04:22.174Z,1.00
2023-04-28T09:06:50.166Z,1.00
2023-04-28T09:09:32.487Z,0.00
2023-04-28T09:12:04.328Z,0.50
2023-04-28T09:14:35.118Z,0.00
2023-04-28T09:17:03.894Z,0.50
2023-04-28T09:19:38.791Z,1.50
2023-04-28T09:22:17.715Z,0.50
2023-04-28T09:24:53.533Z,0.00
2023-04-28T09:27:28.351Z,0.75
2023-04-28T09:29:56.424Z,1.00
2023-04-28T09:32:25.176Z,0.00
2023-04-28T09:34:57.269Z,0.00
2023-04-28T09:37:27.593Z,0.00
2023-04-28T09:39:55.703Z,0.00
2023-04-28T09:42:42.360Z,1.80
2023-04-28T09:45:12.568Z,1.00
2023-04-28T09:47:45.432Z,0.00
2023-04-28T09:50:15.387Z,2.00
2023-04-28T09:52:45.426Z,1.00
2023-04-28T09:55:13.526Z,0.00
2023-04-28T09:57:41.410Z,0.00
2023-04-28T10:00:09.732Z,0.75
2023-04-28T10:02:43.524Z,0.00
2023-04-28T10:05:13.363Z,0.00
2023-04-28T10:07:41.541Z,0.50
2023-04-28T10:10:09.966Z,0.00
2023-04-28T10:12:39.085Z,0.00
2023-04-28T10:15:09.924Z,0.00
2023-04-28T10:17:37.593Z,0.00
2023-04-28T10:20:06.755Z,0.00
2023-04-28T10:22:40.366Z,1.00
2023-04-28T10:25:25.856Z,0.00
2023-04-28T10:27:54.610Z,0.00
2023-04-28T10:30:29.302Z,0.00
2023-04-28T10:33:15.775Z,1.00
2023-04-28T10:35:48.216Z,0.00
2023-04-28T10:38:23.867Z,1.40
2023-04-28T10:40:54.806Z,0.00
2023-04-28T10:43:38.128Z,0.00
2023-04-28T10:46:07.313Z,0.00
2023-04-28T10:48:35.132Z,0.00
2023-04-28T10:51:10.056Z,0.50
2023-04-28T10:53:47.458Z,0.00
2023-04-28T10:56:22.211Z,1.00
2023-04-28T10:58:57.265Z,0.25
2023-04-28T11:01:37.323Z,0.50
2023-04-28T11:04:13.894Z,0.00
2023-04-28T11:06:47.412Z,0.00
2023-04-28T11:09:17.658Z,0.00
2023-04-28T11:12:00.611Z,0.00
2023-04-28T11:14:33.666Z,0.75
2023-04-28T11:17:03.933Z,0.25
2023-04-28T11:19:46.000Z,0.00
2023-04-28T11:22:21.165Z,0.00
2023-04-28T11:25:03.319Z,0.00
2023-04-28T11:27:33.251Z,0.00
2023-04-28T11:30:02.166Z,0.00
2023-04-28T11:32:32.037Z,0.00
2023-04-28T11:35:00.078Z,0.00
2023-04-28T11:37:27.901Z,0.00
2023-04-28T11:39:55.685Z,0.00
2023-04-28T11:42:26.286Z,0.00
2023-04-28T11:44:55.227Z,0.25
2023-04-28T11:47:35.581Z,0.50
2023-04-28T11:50:03.709Z,1.00
2023-04-28T11:52:31.702Z,1.75
2023-04-28T11:55:02.510Z,0.00
2023-04-28T11:57:30.235Z,0.00
2023-04-28T12:00:15.335Z,1.00
2023-04-28T12:02:43.280Z,0.00
2023-04-28T12:05:11.829Z,0.00
2023-04-28T12:07:44.461Z,0.00
2023-04-28T12:10:13.256Z,0.00
2023-04-28T12:12:50.902Z,2.00
2023-04-28T12:16:06.021Z,0.00
2023-04-28T12:18:16.643Z,0.00
2023-04-28T12:20:44.478Z,0.00
2023-04-28T12:23:12.089Z,0.20
2023-04-28T12:25:46.812Z,0.00
2023-04-28T12:28:14.396Z,0.60
2023-04-28T12:30:44.867Z,0.60
2023-04-28T12:33:26.282Z,0.00
2023-04-28T12:35:58.137Z,1.20
2023-04-28T12:38:26.702Z,0.00
2023-04-28T12:40:54.687Z,1.80
2023-04-28T12:43:25.919Z,0.00
2023-04-28T12:45:57.744Z,1.40
2023-04-28T12:48:25.652Z,0.00
2023-04-28T12:50:53.158Z,0.40
2023-04-28T12:53:21.298Z,0.00
2023-04-28T12:55:48.851Z,0.00
2023-04-28T12:58:16.208Z,0.00
2023-04-28T13:00:43.934Z,0.00
2023-04-28T13:03:11.635Z,0.00
2023-04-28T13:05:39.890Z,0.80
2023-04-28T13:08:07.633Z,0.00
2023-04-28T13:10:35.216Z,1.00
2023-04-28T13:13:02.657Z,0.60
2023-04-28T13:15:31.374Z,0.80
2023-04-28T13:18:00.147Z,0.00
2023-04-28T13:20:27.558Z,0.40
2023-04-28T13:22:55.332Z,0.00
2023-04-28T13:25:23.007Z,1.00
2023-04-28T13:27:50.729Z,0.00
2023-04-28T13:30:18.244Z,0.00
2023-04-28T13:32:45.856Z,0.00
2023-04-28T13:35:13.973Z,0.00
2023-04-28T13:37:46.132Z,0.00
2023-04-28T13:40:15.933Z,1.00
2023-04-28T13:42:43.283Z,0.00
2023-04-28T13:45:11.325Z,0.00
2023-04-28T13:47:38.878Z,1.00
2023-04-28T13:50:06.835Z,0.60
2023-04-28T13:52:34.260Z,0.00
2023-04-28T13:55:01.603Z,0.00
2023-04-28T13:57:28.902Z,0.00
2023-04-28T13:59:56.288Z,0.00
2023-04-28T14:02:24.812Z,0.80
2023-04-28T14:04:54.006Z,0.00
2023-04-28T14:07:21.725Z,1.00
2023-04-28T14:09:50.090Z,0.00
2023-04-28T14:12:19.051Z,0.00
2023-04-28T14:14:49.618Z,0.20
2023-04-28T14:17:17.346Z,0.00
2023-04-28T14:19:46.206Z,0.40
2023-04-28T14:22:13.777Z,0.00
2023-04-28T14:24:43.337Z,0.00
2023-04-28T14:27:11.329Z,0.00
2023-04-28T14:29:39.562Z,1.00
2023-04-28T14:32:07.475Z,0.20
2023-04-28T14:34:34.713Z,0.75
2023-04-28T14:37:02.480Z,1.25
2023-04-28T14:39:29.813Z,0.00
2023-04-28T14:41:57.283Z,0.80
2023-04-28T14:44:25.280Z,0.40
2023-04-28T14:46:53.671Z,1.20
2023-04-28T14:49:21.080Z,0.00
2023-04-28T14:51:50.145Z,0.00
2023-04-28T14:54:17.421Z,0.00
2023-04-28T14:56:45.023Z,1.00
2023-04-28T14:59:12.283Z,0.00
2023-04-28T15:01:39.586Z,0.00
2023-04-28T15:04:07.026Z,0.25
2023-04-28T15:06:35.124Z,0.00
2023-04-28T15:09:02.427Z,0.00
2023-04-28T15:11:29.880Z,0.75
2023-04-28T15:13:57.312Z,0.00
2023-04-28T15:16:24.614Z,0.25
2023-04-28T15:18:51.886Z,0.00
2023-04-28T15:21:19.172Z,0.00
2023-04-28T15:23:46.418Z,0.00
2023-04-28T15:26:17.200Z,0.00
2023-04-28T15:28:44.553Z,0.00
2023-04-28T15:31:11.815Z,0.00
2023-04-28T15:33:39.114Z,2.00
2023-04-28T15:36:06.513Z,0.00
2023-04-28T15:38:34.350Z,0.00
2023-04-28T15:41:01.610Z,1.00
2023-04-28T15:43:28.942Z,0.60
2023-04-28T15:45:56.244Z,0.00
2023-04-28T15:48:23.553Z,0.00
2023-04-28T15:50:51.044Z,0.00
2023-04-28T15:53:18.680Z,0.00
2023-04-28T15:55:45.967Z,1.40
2023-04-28T15:58:13.649Z,0.00
2023-04-28T16:00:42.263Z,2.00
2023-04-28T16:03:09.757Z,0.00
2023-04-28T16:05:38.514Z,1.00
2023-04-28T16:08:06.089Z,0.60
2023-04-28T16:10:33.432Z,0.00
2023-04-28T16:13:01.395Z,0.00
2023-04-28T16:15:28.787Z,0.80
2023-04-28T16:17:57.032Z,1.00
2023-04-28T16:20:24.543Z,0.00
2023-04-28T16:22:51.890Z,0.00
2023-04-28T16:25:19.351Z,1.60
2023-04-28T16:27:46.824Z,1.00
2023-04-28T16:30:14.320Z,0.40
2023-04-28T16:32:41.674Z,1.00
2023-04-28T16:35:15.243Z,1.60
2023-04-28T16:37:43.688Z,0.00
2023-04-28T16:40:13.852Z,0.60
2023-04-28T16:42:42.281Z,1.40
2023-04-28T16:45:10.923Z,0.00
2023-04-28T16:47:39.215Z,0.00
2023-04-28T16:50:09.404Z,2.20
2023-04-28T16:52:36.903Z,0.00
2023-04-28T16:55:05.362Z,0.00
2023-04-28T16:57:32.651Z,0.00
2023-04-28T16:59:59.878Z,0.00
2023-04-28T17:02:29.094Z,0.00
2023-04-28T17:04:57.059Z,0.00
2023-04-28T17:07:25.668Z,2.00
2023-04-28T17:09:53.207Z,1.00
2023-04-28T17:12:23.589Z,0.80
2023-04-28T17:14:51.338Z,1.20
2023-04-28T17:17:18.895Z,0.00
2023-04-28T17:19:46.286Z,0.00
2023-04-28T17:22:13.594Z,1.20
2023-04-28T17:24:41.050Z,1.20
2023-04-28T17:27:09.646Z,1.40
2023-04-28T17:29:36.982Z,1.40
2023-04-28T17:32:04.588Z,0.00
2023-04-28T17:34:31.916Z,1.60
2023-04-28T17:36:59.283Z,0.40
2023-04-28T17:39:26.640Z,1.00
2023-04-28T17:41:54.273Z,0.60
2023-04-28T17:44:21.640Z,0.00
2023-04-28T17:46:48.990Z,1.00
2023-04-28T17:49:16.561Z,0.20
2023-04-28T17:51:43.718Z,0.00
2023-04-28T17:54:11.081Z,0.00
2023-04-28T17:56:38.894Z,1.00
2023-04-28T17:59:06.504Z,3.20
2023-04-28T18:01:35.341Z,2.00
2023-04-28T18:04:02.752Z,0.80
2023-04-28T18:06:30.024Z,0.00
2023-04-28T18:08:57.328Z,0.80
2023-04-28T18:11:24.581Z,1.00
2023-04-28T18:13:51.898Z,0.40
2023-04-28T18:16:20.614Z,0.80
2023-04-28T18:18:48.778Z,1.00
2023-04-28T18:21:16.848Z,0.60
2023-04-28T18:23:44.285Z,2.00
2023-04-28T18:26:11.533Z,2.00
2023-04-28T18:28:38.789Z,1.20
2023-04-28T18:31:06.463Z,2.80
2023-04-28T18:33:33.718Z,2.00
2023-04-28T18:36:07.344Z,0.60
2023-04-28T18:38:36.634Z,2.00
2023-04-28T18:41:18.319Z,1.00
2023-04-28T18:43:45.995Z,0.40
2023-04-28T18:46:13.769Z,1.00
2023-04-28T18:48:41.426Z,0.80
2023-04-28T18:51:08.739Z,1.60
2023-04-28T18:53:36.786Z,1.00
2023-04-28T18:56:04.369Z,2.00
2023-04-28T18:58:31.833Z,0.40
2023-04-28T19:00:59.133Z,0.80
2023-04-28T19:03:27.320Z,2.00
2023-04-28T19:05:54.743Z,1.00
2023-04-28T19:08:22.005Z,6.00
2023-04-28T19:10:49.454Z,9.80
2023-04-28T19:13:16.780Z,7.40
2023-04-28T19:15:44.064Z,3.20
2023-04-28T19:18:12.816Z,2.00
2023-04-28T19:20:42.327Z,4.60
2023-04-28T19:23:09.555Z,5.60
2023-04-28T19:25:37.141Z,4.40
2023-04-28T19:28:05.254Z,1.00
2023-04-28T19:30:33.242Z,1.40
2023-04-28T19:33:00.994Z,4.20
2023-04-28T19:35:28.450Z,3.20
2023-04-28T19:37:56.063Z,1.60
2023-04-28T19:40:23.618Z,1.40
2023-04-28T19:42:51.457Z,0.80
2023-04-28T19:45:19.327Z,2.80
2023-04-28T19:47:46.701Z,1.00
2023-04-28T19:50:14.970Z,2.60
2023-04-28T19:52:42.461Z,1.60
2023-04-28T19:55:11.403Z,3.20
2023-04-28T19:57:39.118Z,1.80
2023-04-28T20:00:10.520Z,2.00
2023-04-28T20:02:38.302Z,0.60
2023-04-28T20:05:06.400Z,7.20
2023-04-28T20:07:34.084Z,2.60
2023-04-28T20:10:01.800Z,9.80
2023-04-28T20:12:29.456Z,0.00
2023-04-28T20:14:57.093Z,1.40
2023-04-28T20:17:24.602Z,1.20
2023-04-28T20:19:52.592Z,3.60
2023-04-28T20:22:21.015Z,2.00
2023-04-28T20:24:48.778Z,2.00
2023-04-28T20:27:16.401Z,1.40
2023-04-28T20:29:44.113Z,2.00
2023-04-28T20:32:11.895Z,1.00
2023-04-28T20:34:39.725Z,1.00
2023-04-28T20:37:08.439Z,1.00
2023-04-28T20:39:36.047Z,1.00
2023-04-28T20:42:03.846Z,0.00
2023-04-28T20:44:31.405Z,0.00
2023-04-28T20:47:01.613Z,1.00
2023-04-28T20:49:29.387Z,1.00
2023-04-28T20:52:05.198Z,0.00
2023-04-28T20:54:33.902Z,0.00
2023-04-28T20:57:02.056Z,0.20
2023-04-28T20:59:33.372Z,2.00
2023-04-28T21:02:01.213Z,0.00
2023-04-28T21:04:28.724Z,1.00
2023-04-28T21:06:56.364Z,1.80
2023-04-28T21:09:25.508Z,1.60
2023-04-28T21:11:53.307Z,1.00
2023-04-28T21:14:22.336Z,0.00
2023-04-28T21:16:50.053Z,0.80
2023-04-28T21:19:17.757Z,0.60
2023-04-28T21:21:45.520Z,0.20
2023-04-28T21:24:13.200Z,0.00
2023-04-28T21:26:41.169Z,0.40
2023-04-28T21:29:09.801Z,4.40
2023-04-28T21:31:37.662Z,0.40
2023-04-28T21:34:05.364Z,0.40
2023-04-28T21:36:34.615Z,2.00
2023-04-28T21:39:04.522Z,1.40
2023-04-28T21:41:32.203Z,2.20
2023-04-28T21:44:00.443Z,6.60
2023-04-28T21:46:28.385Z,1.00
2023-04-28T21:48:56.125Z,4.00
2023-04-28T21:51:23.802Z,2.40
2023-04-28T21:53:51.320Z,2.80
2023-04-28T21:56:18.922Z,3.20
2023-04-28T21:58:46.336Z,2.40
2023-04-28T22:01:18.195Z,1.20
2023-04-28T22:03:46.956Z,1.80
2023-04-28T22:06:14.889Z,1.00
2023-04-28T22:08:42.534Z,0.80
2023-04-28T22:11:10.088Z,2.80
2023-04-28T22:13:37.910Z,2.80
2023-04-28T22:16:06.147Z,1.00
2023-04-28T22:18:34.011Z,3.40
2023-04-28T22:21:01.754Z,1.40
2023-04-28T22:23:29.322Z,5.60
2023-04-28T22:26:00.014Z,2.80
2023-04-28T22:28:27.870Z,2.00
2023-04-28T22:30:55.447Z,2.80
2023-04-28T22:33:23.204Z,3.60
2023-04-28T22:35:51.038Z,4.00
2023-04-28T22:38:18.679Z,3.40
2023-04-28T22:40:46.451Z,3.80
2023-04-28T22:43:14.055Z,4.00
2023-04-28T22:45:43.387Z,0.00
2023-04-28T22:48:11.139Z,2.00
2023-04-28T22:50:38.806Z,6.00
2023-04-28T22:53:06.458Z,7.80
2023-04-28T22:55:33.919Z,0.00
2023-04-28T22:58:01.496Z,4.20
2023-04-28T23:00:28.889Z,3.80
2023-04-28T23:02:56.782Z,6.40
2023-04-28T23:05:24.194Z,7.00
2023-04-28T23:07:52.012Z,9.40
2023-04-28T23:10:19.610Z,6.00
2023-04-28T23:12:47.114Z,3.20
2023-04-28T23:15:14.603Z,4.80
2023-04-28T23:17:42.367Z,3.00
2023-04-28T23:20:10.381Z,1.00
2023-04-28T23:22:37.903Z,6.00
2023-04-28T23:25:06.389Z,3.80
2023-04-28T23:27:34.101Z,3.40
2023-04-28T23:30:01.457Z,1.80
2023-04-28T23:32:29.514Z,3.20
2023-04-28T23:34:57.165Z,1.00
2023-04-28T23:37:24.723Z,0.00
2023-04-28T23:39:52.469Z,3.80
2023-04-28T23:42:20.327Z,3.00
2023-04-28T23:44:47.973Z,3.20
2023-04-28T23:47:15.683Z,1.00
2023-04-28T23:49:43.130Z,3.00
2023-04-28T23:52:10.724Z,4.40
2023-04-28T23:54:38.192Z,4.40
2023-04-28T23:57:05.821Z,5.20
2023-04-28T23:59:33.312Z,2.60
